Station: Esperance  

  Atmospheric Gas Attenuation - ITU Rec 676-11   ----------------- dB/100km -----------------
Date Time Temp RH % AH g/m3 Dew Point Wind Direction Speed kph Gust kph Barometer mB Rainfall Since 9am 24GHz 47GHz 76GHz 122GHz 134GHz 241GHz
08/05 09:30 14.4 74 9.15 9.8 11 17 1037.1 0 20.7 27.5 42.8 112.1 107.0 368.3
08/05 09:20 14 74 8.93 9.4 9 11 1037.1 0 20.3 27.3 42.1 110.3 104.5 359.7
08/05 09:10 13.4 75 8.72 9.1 11 13 1037.1 0 19.8 27.1 41.6 108.8 102.5 352.5
08/05 09:00 13.1 80 9.13 9.7 9 13 1037.2 0 20.7 27.9 43.4 113.8 108.5 373.6
08/05 08:50 12.6 83 9.18 9.8 6 7 1037.1 0 20.9 28.1 43.9 115.1 109.9 378.4
08/05 08:40 11.8 83 8.74 9 9 11 1037 0 20.0 27.6 42.5 111.3 104.9 360.7
08/05 08:30 11.6 84 8.73 9 9 11 1037.2 0 19.9 27.7 42.6 111.5 105.1 361.2
08/05 08:20 11 85 8.51 8.6 7 9 1037.1 0 19.5 27.5 42.0 109.8 102.8 353.2
08/05 08:10 10.5 85 8.25 8.1 7 9 1037.1 0 19.0 27.2 41.1 107.6 99.8 342.8
08/05 08:00 10.2 87 8.28 8.1 4 6 1037.1 0 19.1 27.4 41.4 108.3 100.7 345.6
08/05 07:50 10 88 8.27 8.1 4 6 1036.9 0 19.0 27.4 41.5 108.5 100.8 345.9
08/05 07:40 9.7 89 8.21 8 4 6 1036.8 0 18.9 27.4 41.4 108.2 100.3 344.3
08/05 07:30 9.5 89 8.1 7.8 6 7 1036.8 0 18.7 27.3 41.0 107.2 99.0 339.8
08/05 07:20 9.2 90 8.04 7.6 6 7 1036.6 0 18.6 27.2 40.9 106.9 98.6 338.1
08/05 07:10 8.9 90 7.89 7.4 6 6 1036.5 0 18.3 27.1 40.4 105.6 96.8 332.0
08/05 07:00 8.7 90 7.79 7.2 7 11 1036.5 0 18.1 27.0 40.1 104.8 95.7 328.0
08/05 06:50 8.4 90 7.64 6.9 7 9 1036.4 0 17.8 26.8 39.6 103.5 93.9 321.9
08/05 06:40 8.6 90 7.74 7.1 7 9 1036.3 0 18.0 26.9 39.9 104.3 95.1 325.9
08/05 06:30 8.6 91 7.82 7.2 7 9 1036.2 0 18.1 27.0 40.2 105.2 96.2 329.8
08/05 06:20 8.3 92 7.76 7.1 7 7 1036.1 0 18.0 27.0 40.1 104.9 95.7 328.1
08/05 06:10 8.3 92 7.76 7.1 7 9 1036 0 18.0 27.0 40.1 104.9 95.7 328.1
08/05 06:00 8.5 92 7.86 7.3 6 7 1035.9 0 18.2 27.1 40.5 105.8 96.9 332.1
08/05 05:50 8.5 92 7.86 7.3 6 7 1035.7 0 18.2 27.1 40.4 105.8 96.8 332.0
08/05 05:40 8.6 93 7.99 7.5 0 0 1035.6 0 18.5 27.3 40.9 107.1 98.5 338.0
08/05 05:30 8.6 92 7.91 7.4 4 6 1035.6 0 18.3 27.2 40.6 106.2 97.4 334.0
08/05 05:20 8.6 92 7.91 7.4 6 6 1035.4 0 18.3 27.2 40.6 106.2 97.4 334.0
08/05 05:10 8.8 92 8.01 7.6 6 6 1035.4 0 18.5 27.3 40.9 107.0 98.5 338.0
08/05 05:00 9 92 8.11 7.8 6 7 1035.4 0 18.7 27.4 41.2 107.9 99.7 342.1
08/05 04:50 9 92 8.11 7.8 6 7 1035.2 0 18.7 27.4 41.2 107.9 99.7 342.0
08/05 04:40 9 91 8.03 7.6 6 7 1035.1 0 18.6 27.2 40.9 106.9 98.5 338.1
08/05 04:30 9.1 90 7.99 7.5 7 9 1035 0 18.5 27.1 40.7 106.3 97.9 335.7
08/05 04:20 9.4 90 8.14 7.8 9 9 1035 0 18.8 27.3 41.1 107.6 99.6 341.7
08/05 04:10 9.4 89 8.05 7.7 7 9 1035 0 18.6 27.1 40.8 106.6 98.3 337.3
08/05 04:00 9.5 89 8.1 7.8 9 9 1035.1 0 18.7 27.2 40.9 107.1 98.9 339.3
08/05 03:50 9.6 89 8.16 7.9 9 9 1034.9 0 18.8 27.3 41.1 107.6 99.6 341.8
08/05 03:40 9.8 88 8.17 7.9 7 9 1034.9 0 18.8 27.2 41.1 107.4 99.5 341.4
08/05 03:30 10 87 8.18 7.9 9 11 1035 0 18.9 27.2 41.0 107.3 99.3 341.0
08/05 03:20 10.1 88 8.32 8.2 9 11 1034.9 0 19.1 27.4 41.5 108.7 101.2 347.4
08/05 03:10 10.1 88 8.32 8.2 9 11 1034.8 0 19.1 27.4 41.5 108.7 101.2 347.4
08/05 03:00 10.2 87 8.28 8.1 9 11 1035 0 19.1 27.3 41.3 108.1 100.5 345.0
08/05 02:50 10.1 88 8.32 8.2 9 9 1035 0 19.1 27.4 41.5 108.7 101.2 347.4
08/05 02:40 10.1 89 8.42 8.4 7 7 1035 0 19.4 27.5 42.0 109.8 102.6 352.3
08/05 02:30 9.9 90 8.41 8.3 4 6 1035.2 0 19.4 27.6 42.0 110.0 102.7 352.8
08/05 02:20 10 88 8.27 8.1 6 7 1035 0 19.0 27.3 41.4 108.3 100.6 345.4
08/05 02:10 10.4 88 8.48 8.5 7 9 1035 0 19.5 27.6 42.1 110.1 103.0 353.9
08/05 02:00 10.4 88 8.48 8.5 9 11 1035.1 0 19.5 27.6 42.1 110.1 103.0 353.9
08/05 01:50 10.4 88 8.48 8.5 9 9 1034.9 0 19.5 27.6 42.0 110.1 103.0 353.9
08/05 01:40 10.6 88 8.59 8.7 9 11 1034.8 0 19.7 27.7 42.4 111.0 104.3 358.3
08/05 01:30 10.7 87 8.55 8.6 7 9 1034.8 0 19.6 27.6 42.2 110.4 103.6 355.9
08/05 01:20 10.8 87 8.6 8.7 9 9 1034.7 0 19.7 27.6 42.3 110.9 104.1 357.9
08/05 01:10 11 86 8.61 8.8 9 11 1034.7 0 19.7 27.6 42.3 110.7 104.0 357.4
08/05 01:00 11 85 8.51 8.6 9 11 1034.8 0 19.5 27.4 41.9 109.6 102.6 352.6
08/05 00:50 11.1 85 8.56 8.7 9 9 1034.8 0 19.6 27.5 42.0 110.0 103.2 354.6
08/05 00:40 11.2 85 8.62 8.8 9 11 1034.7 0 19.7 27.5 42.2 110.5 103.9 357.0
08/05 00:30 11.3 84 8.57 8.7 9 13 1034.8 0 19.6 27.4 41.9 109.8 103.0 354.1
08/05 00:20 11.4 84 8.62 8.8 9 11 1034.7 0 19.7 27.5 42.1 110.2 103.6 356.1
08/05 00:10 11.5 85 8.78 9.1 9 11 1034.7 0 20.1 27.7 42.7 111.9 105.7 363.4
08/05 00:00 11.5 85 8.78 9.1 9 11 1034.8 0 20.1 27.7 42.7 111.9 105.7 363.4
07/05 23:50 11.7 84 8.79 9.1 9 11 1034.7 0 20.1 27.7 42.7 111.7 105.5 363.0
07/05 23:40 11.8 84 8.84 9.2 9 11 1034.8 0 20.2 27.7 42.8 112.2 106.1 364.9
07/05 23:30 12.1 84 9.01 9.5 11 13 1034.9 0 20.5 27.9 43.4 113.7 108.1 371.8
07/05 23:20 12.1 83 8.9 9.3 9 11 1034.9 0 20.3 27.7 42.9 112.4 106.5 366.5
07/05 23:10 12.2 83 8.96 9.4 9 11 1034.9 0 20.4 27.8 43.1 112.9 107.2 368.9
07/05 23:00 12.3 83 9.01 9.5 9 11 1035.1 0 20.5 27.9 43.3 113.4 107.8 370.9
07/05 22:50 12.3 82 8.9 9.3 9 13 1035 0 20.3 27.7 42.8 112.1 106.3 365.6
07/05 22:40 12.7 81 9.02 9.5 11 13 1035 0 20.5 27.8 43.1 112.9 107.4 369.5
07/05 22:30 12.8 81 9.07 9.6 11 15 1035.1 0 20.6 27.8 43.3 113.3 107.9 371.5
07/05 22:20 12.8 80 8.96 9.4 9 11 1035.1 0 20.4 27.6 42.8 112.1 106.4 366.2
07/05 22:10 13.1 79 9.02 9.5 9 13 1035.2 0 20.5 27.6 42.9 112.4 106.8 367.7
07/05 22:00 13.3 78 9.01 9.5 9 15 1035.3 0 20.5 27.6 42.7 112.0 106.4 366.3
07/05 21:50 13.3 78 9.01 9.5 9 13 1035.1 0 20.5 27.6 42.7 111.9 106.4 366.2
07/05 21:40 13.5 76 8.89 9.4 11 17 1035.1 0 20.2 27.3 42.1 110.3 104.5 359.6
07/05 21:30 13.8 76 9.06 9.6 9 19 1035.1 0 20.5 27.5 42.7 111.8 106.4 366.3
07/05 21:20 13.9 75 8.99 9.5 11 13 1035 0 20.4 27.3 42.3 110.9 105.3 362.5
07/05 21:10 14.2 73 8.91 9.4 9 11 1035 0 20.2 27.1 41.8 109.6 103.8 357.3
07/05 21:00 14.4 72 8.9 9.4 11 15 1035 0 20.2 27.0 41.7 109.2 103.4 355.9
07/05 20:50 14.6 72 9.01 9.6 11 13 1034.8 0 20.4 27.1 42.0 110.1 104.6 360.1
07/05 20:40 14.4 73 9.02 9.6 13 17 1034.7 0 20.4 27.2 42.2 110.5 105.0 361.5
07/05 20:30 14.3 74 9.09 9.7 11 15 1034.7 0 20.6 27.4 42.5 111.4 106.1 365.3
07/05 20:20 14.2 74 9.04 9.6 9 11 1034.7 0 20.5 27.3 42.4 111.0 105.6 363.3
07/05 20:10 14.1 76 9.22 9.9 11 17 1034.7 0 20.9 27.6 43.2 113.1 108.1 372.4
07/05 20:00 14.1 76 9.22 9.9 11 17 1034.7 0 20.9 27.6 43.2 113.1 108.1 372.4
07/05 19:50 14.2 76 9.28 10 9 13 1034.7 0 21.0 27.7 43.3 113.6 108.8 374.8
07/05 19:40 14.5 75 9.33 10.1 11 15 1034.7 0 21.1 27.7 43.4 113.7 109.1 375.7
07/05 19:30 14.6 74 9.26 10 15 20 1034.8 0 20.9 27.6 43.0 112.8 108.0 371.9
07/05 19:20 15.1 72 9.29 10.1 15 17 1034.6 0 21.0 27.4 42.9 112.4 107.7 370.9
07/05 19:10 15.4 72 9.46 10.4 15 17 1034.7 0 21.3 27.6 43.4 113.9 109.6 377.6
07/05 19:00 15.8 72 9.69 10.8 17 20 1034.8 0 21.8 27.9 44.2 115.8 112.1 386.5
07/05 18:50 15.8 71 9.56 10.6 19 20 1034.7 0 21.5 27.7 43.6 114.4 110.4 380.4
07/05 18:40 15.8 70 9.42 10.3 13 15 1034.7 0 21.2 27.4 43.0 112.8 108.5 373.8
07/05 18:30 16 68 9.26 10.1 15 22 1034.7 0 20.9 27.1 42.3 110.8 106.1 365.3
07/05 18:20 16 67 9.13 9.9 19 20 1034.5 0 20.6 26.9 41.8 109.4 104.3 359.2
07/05 18:10 16.2 65 8.96 9.6 19 22 1034.4 0 20.2 26.6 41.0 107.3 101.8 350.5
07/05 18:00 16.3 64 8.88 9.5 20 28 1034.4 0 20.0 26.4 40.6 106.3 100.6 346.4
07/05 17:50 16.2 65 8.96 9.6 17 20 1034.3 0 20.2 26.6 41.0 107.3 101.8 350.4
07/05 17:40 16.3 66 9.16 9.9 22 24 1034.2 0 20.6 26.9 41.7 109.3 104.3 359.2
07/05 17:30 16.4 66 9.21 10 22 30 1034.3 0 20.7 26.9 41.9 109.7 104.8 361.1
07/05 17:20 16.5 65 9.13 9.9 19 24 1034.1 0 20.6 26.7 41.5 108.7 103.6 356.9
07/05 17:10 16.7 63 8.95 9.6 15 19 1034.1 0 20.2 26.4 40.7 106.5 101.0 347.7
07/05 17:00 16.6 60 8.48 8.8 20 28 1034.1 0 19.2 25.7 38.9 101.7 95.0 326.9

Last Refresh: 08-May-2026 11:05:32

Bureau of Meteorology